Latham, New York
Current Conditions -  °F | °C
As of 10:51 AM on Thursday 23 Oct 2014 (Local Time) from KALB Reporting Station
Light Rain Light Rain  
Wind Chill: 41°   Ceiling: 1000
Heat Index: 46°   Visibility: 5mi
Dew Point: 44°   Wind: 9mph
Humidity: 93%   Direction: 360°N
Pressure: 29.85"   Gusts: NA
Location:  42.74°N, 73.76°W
Report Text: KALB 231451Z 36008KT 5SM -RA BR SCT007 BKN010 OVC017 08/07 A2985 RMK AO2 SLP110 SCT V BKN P0010 60020 T00780067 58003
Loading
Personal Weather Stations






























Interactive Weather Map
Tropical Storm Tracking
New forecast layout! Learn more

10-Day Weather Forecast

Advertisements
Track Severe Weather on mobile